Time;durP1;ratioP1;P1;durP2;ratioP2;P2;SDS_P1;SDS_P2;PMS_P1;PMS_P2;Temp;Humidity;BMP_temperature;BMP_pressure;BME280_temperature;BME280_humidity;BME280_pressure;Samples;Min_cycle;Max_cycle;Signal;HPM_P1;HPM_P2
2023/06/29 00:00:15;;;;;;;72.97;39.97;;;17.50;99.90;;;;;;5117111;28;20121;-25
2023/06/29 00:02:41;;;;;;;67.53;38.38;;;17.50;99.90;;;;;;5116606;28;20039;-25
2023/06/29 00:05:08;;;;;;;67.40;40.53;;;17.50;99.90;;;;;;5099141;28;20045;-26
2023/06/29 00:07:34;;;;;;;68.57;41.88;;;17.50;99.90;;;;;;5116197;28;20126;-25
2023/06/29 00:10:01;;;;;;;69.13;40.17;;;17.50;99.90;;;;;;5134277;28;20127;-25
2023/06/29 00:12:27;;;;;;;77.05;41.30;;;17.50;99.90;;;;;;5134724;28;20051;-25
2023/06/29 00:14:53;;;;;;;65.47;39.03;;;17.50;99.90;;;;;;5134253;28;20039;-25
2023/06/29 00:17:19;;;;;;;72.32;38.97;;;17.50;99.90;;;;;;5134173;28;20069;-25
2023/06/29 00:19:48;;;;;;;63.63;40.97;;;17.50;99.90;;;;;;5134746;28;20039;-25
2023/06/29 00:22:15;;;;;;;80.35;42.60;;;17.50;99.90;;;;;;5134161;28;20042;-25
2023/06/29 00:24:44;;;;;;;77.95;42.22;;;17.50;99.90;;;;;;5134520;27;20043;-25
2023/06/29 00:27:14;;;;;;;73.28;42.88;;;17.50;99.90;;;;;;5138756;27;20047;-25
2023/06/29 00:29:42;;;;;;;78.40;43.22;;;17.50;99.90;;;;;;5137839;27;20484;-25
2023/06/29 00:32:09;;;;;;;74.90;42.67;;;17.50;99.90;;;;;;5137724;27;20047;-25
2023/06/29 00:34:34;;;;;;;71.80;43.33;;;17.50;99.90;;;;;;5137787;27;20054;-25
2023/06/29 00:37:00;;;;;;;77.95;42.53;;;17.50;99.90;;;;;;5137679;27;20043;-25
2023/06/29 00:39:26;;;;;;;79.28;44.00;;;17.50;99.90;;;;;;5119134;27;20049;-25
2023/06/29 00:41:55;;;;;;;74.57;43.50;;;17.50;99.90;;;;;;5137624;27;20039;-25
2023/06/29 00:44:22;;;;;;;82.55;44.28;;;17.50;99.90;;;;;;5138130;27;20126;-25
2023/06/29 00:46:49;;;;;;;79.50;43.25;;;17.50;99.90;;;;;;5138096;27;20054;-25
2023/06/29 00:49:15;;;;;;;83.65;46.05;;;17.50;99.90;;;;;;5119374;27;20054;-25
2023/06/29 00:51:41;;;;;;;78.68;46.00;;;17.50;99.90;;;;;;5137353;27;20387;-24
2023/06/29 00:54:07;;;;;;;78.95;43.60;;;17.50;99.90;;;;;;5137324;27;20051;-24
2023/06/29 00:56:34;;;;;;;75.43;43.95;;;17.50;99.90;;;;;;5137633;27;20438;-25
2023/06/29 00:59:01;;;;;;;75.55;45.90;;;17.50;99.90;;;;;;5118877;27;20055;-25
2023/06/29 01:01:27;;;;;;;78.85;45.65;;;17.50;99.90;;;;;;5118973;27;20043;-25
2023/06/29 01:03:57;;;;;;;78.10;46.63;;;17.50;99.90;;;;;;5119558;27;20044;-25
2023/06/29 01:06:31;;;;;;;79.03;46.38;;;17.50;99.90;;;;;;5137208;27;20043;-25
2023/06/29 01:09:05;;;;;;;81.43;47.72;;;17.50;99.90;;;;;;5102612;27;20043;-25
2023/06/29 01:11:36;;;;;;;89.82;48.40;;;17.50;99.90;;;;;;5119275;27;20039;-26
2023/06/29 01:14:05;;;;;;;82.20;46.97;;;17.60;99.90;;;;;;5137356;27;20065;-25
2023/06/29 01:16:34;;;;;;;98.47;46.33;;;17.60;99.90;;;;;;5136960;27;20078;-25
2023/06/29 01:19:11;;;;;;;86.93;49.50;;;17.60;99.90;;;;;;5118808;27;20369;-25
2023/06/29 01:22:18;;;;;;;84.82;47.85;;;17.60;99.90;;;;;;5137770;27;20100;-25
2023/06/29 01:24:45;;;;;;;81.13;48.42;;;17.60;99.90;;;;;;5132847;27;20055;-25
2023/06/29 01:27:13;;;;;;;76.60;46.17;;;17.60;99.90;;;;;;5136795;27;20126;-25
2023/06/29 01:29:40;;;;;;;77.32;47.47;;;17.60;99.90;;;;;;5101430;27;20201;-25
2023/06/29 01:32:07;;;;;;;82.53;48.00;;;17.50;99.90;;;;;;5136604;27;20050;-25
2023/06/29 01:34:35;;;;;;;81.78;47.28;;;17.60;99.90;;;;;;5118414;27;20054;-25
2023/06/29 01:37:18;;;;;;;83.97;46.50;;;17.50;99.90;;;;;;5117743;27;20076;-26
2023/06/29 01:39:55;;;;;;;82.60;46.83;;;17.60;99.90;;;;;;5137188;27;20118;-26
2023/06/29 01:42:22;;;;;;;70.43;44.60;;;17.50;99.90;;;;;;5136539;27;20035;-26
2023/06/29 01:44:48;;;;;;;78.53;46.13;;;17.50;99.90;;;;;;5118255;27;20400;-25
2023/06/29 01:47:15;;;;;;;80.60;45.55;;;17.50;99.90;;;;;;5136360;27;20442;-25
2023/06/29 01:49:42;;;;;;;76.10;46.58;;;17.50;99.90;;;;;;5136605;27;20051;-25
2023/06/29 01:52:08;;;;;;;74.63;45.22;;;17.50;99.90;;;;;;5136740;27;20046;-26
2023/06/29 01:54:34;;;;;;;88.30;48.80;;;17.50;99.90;;;;;;5136178;27;20064;-26
2023/06/29 01:56:59;;;;;;;77.80;46.47;;;17.50;99.90;;;;;;5136170;27;20129;-26
2023/06/29 01:59:26;;;;;;;80.28;45.90;;;17.50;99.90;;;;;;5136668;27;20138;-25
2023/06/29 02:01:52;;;;;;;80.25;45.67;;;17.50;99.90;;;;;;5118019;27;20104;-25
2023/06/29 02:04:17;;;;;;;79.88;45.08;;;17.50;99.90;;;;;;5117707;27;20051;-25
2023/06/29 02:06:43;;;;;;;81.88;46.13;;;17.50;99.90;;;;;;5135974;27;20042;-25
2023/06/29 02:09:09;;;;;;;79.65;46.58;;;17.50;99.90;;;;;;5135874;27;20126;-25
2023/06/29 02:11:35;;;;;;;77.30;45.17;;;17.50;99.90;;;;;;5135792;27;20031;-26
2023/06/29 02:14:01;;;;;;;79.63;45.40;;;17.50;99.90;;;;;;5136339;27;20049;-25
2023/06/29 02:16:26;;;;;;;77.75;45.28;;;17.50;99.90;;;;;;5135750;27;20046;-26
2023/06/29 02:18:52;;;;;;;80.20;47.28;;;17.50;99.90;;;;;;5117749;27;20049;-25
2023/06/29 02:21:18;;;;;;;71.95;45.80;;;17.50;99.90;;;;;;5135684;27;20050;-26
2023/06/29 02:23:43;;;;;;;70.82;43.33;;;17.50;99.90;;;;;;5135596;27;20047;-25
2023/06/29 02:26:09;;;;;;;71.72;44.20;;;17.50;99.90;;;;;;5135589;27;20042;-25
2023/06/29 02:28:35;;;;;;;75.53;44.38;;;17.50;99.90;;;;;;5118223;27;20039;-25
2023/06/29 02:31:00;;;;;;;73.28;43.75;;;17.50;99.90;;;;;;5135007;27;20051;-25
2023/06/29 02:33:26;;;;;;;70.13;44.42;;;17.50;99.90;;;;;;5135985;27;20049;-25
2023/06/29 02:35:52;;;;;;;73.63;45.72;;;17.50;99.90;;;;;;5135671;27;20050;-25
2023/06/29 02:38:17;;;;;;;70.78;44.60;;;17.50;99.90;;;;;;5135394;27;20093;-25
2023/06/29 02:40:44;;;;;;;67.70;43.50;;;17.50;99.90;;;;;;5135331;27;20043;-25
2023/06/29 02:43:10;;;;;;;68.38;43.83;;;17.50;99.90;;;;;;5135335;27;20050;-25
2023/06/29 02:45:36;;;;;;;74.53;43.95;;;17.60;99.90;;;;;;5135231;27;20043;-26
2023/06/29 02:48:02;;;;;;;77.53;43.95;;;17.60;99.90;;;;;;5117408;27;20039;-26
2023/06/29 02:50:27;;;;;;;73.15;43.03;;;17.60;99.90;;;;;;5135079;27;20476;-25
2023/06/29 02:52:53;;;;;;;71.55;44.13;;;17.60;99.90;;;;;;5135092;27;20092;-25
2023/06/29 02:55:22;;;;;;;70.43;42.92;;;17.60;99.90;;;;;;5117637;27;20042;-25
2023/06/29 02:57:48;;;;;;;70.40;41.38;;;17.60;99.90;;;;;;5117408;27;20066;-26
2023/06/29 03:00:14;;;;;;;68.78;42.42;;;17.60;99.90;;;;;;5117406;27;20126;-26
2023/06/29 03:02:40;;;;;;;65.20;42.38;;;17.60;99.90;;;;;;5135635;27;20180;-26
2023/06/29 03:05:06;;;;;;;76.15;41.35;;;17.60;99.90;;;;;;5135537;27;20479;-25
2023/06/29 03:07:32;;;;;;;68.88;43.33;;;17.60;99.90;;;;;;5134905;27;20047;-25
2023/06/29 03:09:58;;;;;;;63.97;41.35;;;17.60;99.90;;;;;;5134573;27;20503;-25
2023/06/29 03:12:24;;;;;;;68.55;39.88;;;17.60;99.90;;;;;;5134746;27;20035;-25
2023/06/29 03:14:49;;;;;;;62.80;40.45;;;17.60;99.90;;;;;;5134762;27;20043;-25
2023/06/29 03:17:15;;;;;;;62.15;40.45;;;17.60;99.90;;;;;;5117095;27;20090;-26
2023/06/29 03:19:41;;;;;;;60.22;40.15;;;17.60;99.90;;;;;;5134767;27;20126;-25
2023/06/29 03:22:07;;;;;;;62.80;40.03;;;17.60;99.90;;;;;;5134689;27;20035;-25
2023/06/29 03:24:32;;;;;;;63.42;41.55;;;17.60;99.90;;;;;;5083188;28;20096;-25
2023/06/29 03:26:58;;;;;;;67.47;42.50;;;17.60;99.90;;;;;;5135198;28;20047;-26
2023/06/29 03:29:24;;;;;;;66.40;41.08;;;17.60;99.90;;;;;;5116736;28;20425;-26
2023/06/29 03:31:50;;;;;;;59.53;39.03;;;17.60;99.90;;;;;;5134565;28;20040;-26
2023/06/29 03:34:16;;;;;;;64.88;40.28;;;17.60;99.90;;;;;;5116510;28;20062;-26
2023/06/29 03:36:42;;;;;;;63.75;39.72;;;17.70;99.90;;;;;;5134848;28;20043;-26
2023/06/29 03:39:07;;;;;;;59.38;38.92;;;17.60;99.90;;;;;;5116405;28;20100;-26
2023/06/29 03:41:33;;;;;;;59.40;39.75;;;17.70;99.90;;;;;;5134779;28;20046;-25
2023/06/29 03:43:59;;;;;;;63.53;38.83;;;17.70;99.90;;;;;;5116207;28;20054;-26
2023/06/29 03:46:24;;;;;;;58.95;38.22;;;17.70;99.90;;;;;;5135335;28;20122;-26
2023/06/29 03:48:50;;;;;;;61.50;36.47;;;17.70;99.90;;;;;;5134443;28;20479;-26
2023/06/29 03:51:16;;;;;;;56.22;37.35;;;17.70;99.90;;;;;;5134679;28;20087;-26
2023/06/29 03:53:41;;;;;;;57.03;36.10;;;17.70;99.90;;;;;;5134432;28;20043;-26
2023/06/29 03:56:07;;;;;;;52.22;35.80;;;17.70;99.90;;;;;;5134381;28;20051;-26
2023/06/29 03:58:33;;;;;;;56.00;36.80;;;17.80;99.90;;;;;;5116282;28;20138;-26
2023/06/29 04:00:59;;;;;;;50.83;35.15;;;17.80;99.90;;;;;;5136376;27;20123;-26
2023/06/29 04:03:24;;;;;;;55.78;35.40;;;17.80;99.90;;;;;;5120109;27;20076;-26
2023/06/29 04:05:50;;;;;;;54.75;34.75;;;17.80;99.90;;;;;;5138334;27;20047;-26
2023/06/29 04:08:16;;;;;;;57.03;35.53;;;17.90;99.90;;;;;;5138295;27;20059;-26
2023/06/29 04:10:41;;;;;;;47.72;34.97;;;17.90;99.90;;;;;;5120465;27;20043;-26
2023/06/29 04:13:07;;;;;;;52.65;33.70;;;17.90;99.90;;;;;;5138227;27;20043;-26
2023/06/29 04:15:33;;;;;;;51.83;34.17;;;17.90;99.90;;;;;;5138126;27;20460;-26
2023/06/29 04:17:58;;;;;;;54.45;34.47;;;17.90;99.90;;;;;;5138694;27;20046;-26
2023/06/29 04:20:24;;;;;;;53.45;33.95;;;18.00;99.90;;;;;;5138640;27;20482;-26
2023/06/29 04:22:50;;;;;;;48.55;32.80;;;18.10;99.90;;;;;;5138855;27;20042;-26
2023/06/29 04:25:16;;;;;;;53.03;35.58;;;18.20;99.90;;;;;;5137962;27;20107;-26
2023/06/29 04:27:42;;;;;;;46.47;32.25;;;18.30;99.90;;;;;;5138482;27;20050;-26
2023/06/29 04:30:09;;;;;;;49.63;32.90;;;18.30;99.90;;;;;;5137790;27;20043;-26
2023/06/29 04:32:35;;;;;;;49.33;33.17;;;18.40;99.90;;;;;;5138357;27;20051;-26
2023/06/29 04:35:01;;;;;;;51.05;32.47;;;18.50;99.90;;;;;;5137766;27;20043;-26
2023/06/29 04:37:36;;;;;;;46.95;32.40;;;18.50;99.90;;;;;;5137721;27;20134;-26
2023/06/29 04:40:05;;;;;;;43.60;29.85;;;18.60;99.90;;;;;;5119648;27;20545;-26
2023/06/29 04:42:30;;;;;;;47.10;30.58;;;18.70;99.90;;;;;;5137655;27;20118;-26
2023/06/29 04:44:56;;;;;;;46.75;31.48;;;18.80;99.90;;;;;;5137629;27;20138;-26
2023/06/29 04:47:22;;;;;;;45.80;30.10;;;18.80;99.90;;;;;;5137544;27;20043;-26
2023/06/29 04:49:52;;;;;;;41.63;29.67;;;18.90;99.90;;;;;;5119119;27;20051;-27
2023/06/29 04:52:18;;;;;;;41.22;27.05;;;18.90;99.90;;;;;;5119955;27;20083;-26
2023/06/29 04:54:44;;;;;;;44.58;28.77;;;18.90;99.90;;;;;;5137382;27;20046;-26
2023/06/29 04:57:12;;;;;;;39.65;28.17;;;18.90;99.90;;;;;;5119077;27;20058;-26
2023/06/29 04:59:38;;;;;;;37.72;26.42;;;18.90;99.90;;;;;;5137972;27;20111;-26
2023/06/29 05:02:04;;;;;;;37.45;27.05;;;19.00;99.90;;;;;;5136958;27;20043;-26
2023/06/29 05:04:30;;;;;;;40.60;28.13;;;19.00;99.90;;;;;;5137264;27;20369;-26
2023/06/29 05:06:56;;;;;;;37.65;26.63;;;18.90;99.90;;;;;;5119371;27;20245;-26
2023/06/29 05:09:21;;;;;;;38.33;26.67;;;18.90;99.90;;;;;;5119060;27;20391;-26
2023/06/29 05:11:47;;;;;;;31.65;23.80;;;19.00;99.90;;;;;;5137429;27;20071;-26
2023/06/29 05:14:13;;;;;;;35.15;24.23;;;19.00;99.90;;;;;;5119506;27;20050;-26
2023/06/29 05:16:39;;;;;;;33.15;24.38;;;19.00;99.90;;;;;;5119249;27;20039;-27
2023/06/29 05:19:04;;;;;;;35.50;26.10;;;19.10;99.90;;;;;;5136936;27;20039;-26
2023/06/29 05:21:30;;;;;;;35.95;25.45;;;19.20;99.90;;;;;;5118826;27;20118;-26
2023/06/29 05:23:56;;;;;;;36.28;25.67;;;19.20;99.90;;;;;;5136836;27;20058;-26
2023/06/29 05:26:22;;;;;;;36.70;25.75;;;19.30;99.90;;;;;;5136873;27;20043;-26
2023/06/29 05:28:48;;;;;;;36.58;24.50;;;19.30;99.90;;;;;;5137507;27;20043;-26
2023/06/29 05:31:14;;;;;;;32.88;24.30;;;19.30;99.90;;;;;;5136611;27;20043;-26
2023/06/29 05:33:40;;;;;;;36.58;24.10;;;19.40;99.90;;;;;;5102100;27;20039;-26
2023/06/29 05:36:06;;;;;;;36.17;24.35;;;19.50;99.90;;;;;;5119281;27;20090;-26
2023/06/29 05:38:32;;;;;;;31.95;22.70;;;19.50;99.90;;;;;;5136527;27;20043;-27
2023/06/29 05:40:57;;;;;;;27.05;22.95;;;19.60;99.90;;;;;;5136822;27;20039;-26
2023/06/29 05:43:23;;;;;;;30.83;22.63;;;19.60;99.90;;;;;;5136430;27;20039;-26
2023/06/29 05:45:49;;;;;;;32.33;22.73;;;19.60;99.90;;;;;;5136426;27;20043;-26
2023/06/29 05:48:15;;;;;;;32.22;22.63;;;19.60;99.90;;;;;;5136373;27;20043;-26
2023/06/29 05:50:40;;;;;;;31.23;21.38;;;19.70;99.90;;;;;;5135932;27;20126;-26
2023/06/29 05:53:06;;;;;;;29.52;22.17;;;19.80;99.90;;;;;;5137127;27;20047;-26
2023/06/29 05:55:32;;;;;;;31.42;22.85;;;19.80;99.90;;;;;;5136531;27;20384;-26
2023/06/29 05:57:58;;;;;;;31.83;22.67;;;20.00;99.90;;;;;;5136308;27;20066;-27
2023/06/29 06:00:25;;;;;;;29.80;22.48;;;20.20;99.90;;;;;;5136135;27;20392;-26
2023/06/29 06:02:51;;;;;;;29.65;21.17;;;20.50;99.90;;;;;;5136344;27;20116;-26
2023/06/29 06:05:16;;;;;;;31.85;20.83;;;20.80;99.90;;;;;;5101106;27;20484;-26
2023/06/29 06:07:42;;;;;;;30.48;21.55;;;20.70;99.90;;;;;;5136318;27;20069;-26
2023/06/29 06:10:08;;;;;;;35.33;21.40;;;20.60;99.90;;;;;;5117842;27;20047;-26
2023/06/29 06:12:34;;;;;;;27.10;20.88;;;20.50;99.90;;;;;;5117557;27;20467;-26
2023/06/29 06:15:00;;;;;;;35.08;21.63;;;20.40;99.90;;;;;;5135803;27;20084;-27
2023/06/29 06:17:25;;;;;;;28.58;20.98;;;20.40;99.90;;;;;;5118498;27;20078;-26
2023/06/29 06:19:52;;;;;;;28.25;20.77;;;20.30;99.90;;;;;;5135778;27;20050;-27
2023/06/29 06:22:18;;;;;;;29.90;21.27;;;20.30;99.90;;;;;;5117095;27;20039;-27
2023/06/29 06:24:44;;;;;;;31.48;22.05;;;20.30;99.90;;;;;;5118082;27;20051;-26
2023/06/29 06:27:09;;;;;;;30.63;20.60;;;20.30;99.90;;;;;;5135678;27;20099;-27
2023/06/29 06:29:35;;;;;;;31.92;20.83;;;20.40;99.90;;;;;;5117105;27;20494;-26
2023/06/29 06:32:02;;;;;;;30.38;20.33;;;20.30;99.90;;;;;;5100344;27;20609;-26
2023/06/29 06:34:30;;;;;;;31.23;20.40;;;20.30;99.90;;;;;;5117410;27;20096;-27
2023/06/29 06:36:58;;;;;;;31.48;21.05;;;20.40;99.90;;;;;;5136026;27;20043;-27
2023/06/29 06:39:23;;;;;;;28.13;20.83;;;20.50;99.90;;;;;;5135659;27;20118;-26
2023/06/29 06:41:49;;;;;;;34.53;22.00;;;20.50;99.90;;;;;;5117271;27;20556;-28
2023/06/29 06:44:15;;;;;;;27.30;21.38;;;20.60;99.90;;;;;;5134961;27;20058;-27
2023/06/29 06:46:41;;;;;;;28.88;21.58;;;20.70;99.90;;;;;;5117433;27;20043;-26
2023/06/29 06:49:06;;;;;;;30.60;20.00;;;20.70;99.90;;;;;;5135986;27;20078;-26
2023/06/29 06:51:32;;;;;;;32.72;21.77;;;20.80;99.90;;;;;;5116868;27;20498;-26
2023/06/29 06:53:58;;;;;;;28.10;21.27;;;20.80;99.90;;;;;;5099919;27;20050;-26
2023/06/29 06:56:24;;;;;;;29.90;22.20;;;20.80;99.90;;;;;;5082990;27;20047;-27
2023/06/29 06:58:50;;;;;;;33.63;22.90;;;20.90;99.90;;;;;;5134945;27;20062;-26
2023/06/29 07:01:16;;;;;;;33.25;22.00;;;20.90;99.90;;;;;;5135045;27;20533;-27
2023/06/29 07:03:42;;;;;;;32.22;22.20;;;20.90;99.90;;;;;;5135037;27;20047;-27
2023/06/29 07:06:08;;;;;;;24.35;18.63;;;20.90;99.90;;;;;;5134953;27;20074;-26
2023/06/29 07:08:35;;;;;;;30.23;20.90;;;20.80;99.90;;;;;;5134554;27;20050;-26
2023/06/29 07:11:02;;;;;;;30.58;21.75;;;20.80;99.90;;;;;;5134810;27;20043;-26
2023/06/29 07:13:27;;;;;;;28.98;21.52;;;20.80;99.90;;;;;;5116608;27;20043;-26
2023/06/29 07:15:53;;;;;;;28.50;20.67;;;20.70;99.90;;;;;;5135370;27;20482;-26
2023/06/29 07:18:20;;;;;;;29.17;21.48;;;20.70;99.90;;;;;;5117501;27;20186;-26
2023/06/29 07:20:46;;;;;;;33.05;22.38;;;20.60;99.90;;;;;;5134798;27;20050;-26
2023/06/29 07:23:11;;;;;;;28.55;20.77;;;20.70;99.90;;;;;;5116553;27;20388;-27
2023/06/29 07:25:37;;;;;;;33.20;21.65;;;20.70;99.90;;;;;;5134761;27;20047;-27
2023/06/29 07:28:03;;;;;;;33.95;24.30;;;20.80;99.90;;;;;;5134334;27;20120;-26
2023/06/29 07:30:29;;;;;;;30.67;21.45;;;20.80;99.90;;;;;;5134571;28;20054;-26
2023/06/29 07:32:54;;;;;;;31.33;22.15;;;21.00;99.90;;;;;;5134598;28;20040;-26
2023/06/29 07:35:20;;;;;;;32.17;23.67;;;21.10;99.90;;;;;;5100446;27;20046;-26
2023/06/29 07:37:46;;;;;;;31.23;22.83;;;21.20;99.90;;;;;;5138947;27;20050;-26
2023/06/29 07:40:12;;;;;;;31.83;22.60;;;21.30;99.90;;;;;;5138906;27;20197;-26
2023/06/29 07:42:38;;;;;;;34.15;22.13;;;21.30;99.90;;;;;;5138863;27;20047;-26
2023/06/29 07:45:05;;;;;;;32.67;22.05;;;21.50;99.90;;;;;;5138840;27;20496;-26
2023/06/29 07:47:31;;;;;;;30.33;22.23;;;21.60;99.90;;;;;;5086869;27;20091;-27
2023/06/29 07:49:57;;;;;;;37.25;22.83;;;21.70;99.90;;;;;;5139519;27;20078;-26
2023/06/29 07:52:22;;;;;;;35.97;23.33;;;21.70;99.90;;;;;;5138674;27;20476;-26
2023/06/29 07:54:49;;;;;;;32.03;22.67;;;21.60;99.90;;;;;;5138556;27;20051;-26
2023/06/29 07:57:15;;;;;;;30.67;22.80;;;21.50;99.90;;;;;;5138618;27;20051;-27
2023/06/29 07:59:40;;;;;;;36.92;24.15;;;21.50;99.90;;;;;;5137903;27;20074;-26
2023/06/29 08:02:07;;;;;;;36.22;23.77;;;21.60;99.90;;;;;;5138438;27;20047;-27
2023/06/29 08:04:33;;;;;;;34.92;22.27;;;21.60;99.90;;;;;;5138982;27;20349;-26
2023/06/29 08:06:59;;;;;;;35.20;24.10;;;21.50;99.90;;;;;;5119947;27;20107;-26
2023/06/29 08:09:25;;;;;;;35.45;24.75;;;21.40;99.90;;;;;;5138596;27;20039;-27
2023/06/29 08:11:50;;;;;;;33.97;23.40;;;21.50;99.90;;;;;;5120679;27;20528;-26
2023/06/29 08:14:16;;;;;;;35.92;22.73;;;21.50;99.90;;;;;;5138199;27;20047;-26
2023/06/29 08:16:42;;;;;;;35.33;23.70;;;21.60;99.90;;;;;;5120423;27;20072;-26
2023/06/29 08:19:08;;;;;;;34.65;22.55;;;21.70;99.90;;;;;;5138698;27;20365;-27
2023/06/29 08:21:33;;;;;;;38.15;23.88;;;21.90;99.90;;;;;;5138922;27;20424;-27
2023/06/29 08:23:59;;;;;;;35.22;25.20;;;22.00;99.90;;;;;;5120177;27;20380;-27
2023/06/29 08:26:25;;;;;;;33.60;22.25;;;22.10;99.90;;;;;;5119730;27;20043;-27
2023/06/29 08:28:51;;;;;;;39.22;22.05;;;22.30;99.90;;;;;;5137830;27;20043;-26
2023/06/29 08:31:19;;;;;;;36.42;23.02;;;22.30;1.00;;;;;;5137816;27;20054;-26
2023/06/29 08:33:45;;;;;;;32.88;22.35;;;22.50;1.00;;;;;;5138393;27;20095;-27
2023/06/29 08:36:11;;;;;;;34.92;23.13;;;22.90;1.00;;;;;;5137783;27;20052;-27
2023/06/29 08:38:37;;;;;;;33.95;23.88;;;23.00;1.00;;;;;;5137726;27;20047;-27
2023/06/29 08:41:04;;;;;;;41.58;23.23;;;22.80;99.90;;;;;;5119935;27;20171;-26
2023/06/29 08:43:30;;;;;;;35.65;24.60;;;23.00;1.00;;;;;;5137646;27;20051;-27
2023/06/29 08:45:55;;;;;;;31.75;23.58;;;22.80;1.00;;;;;;5137367;27;20051;-26
2023/06/29 08:48:23;;;;;;;32.03;24.23;;;22.50;1.00;;;;;;5138337;27;20050;-26
2023/06/29 08:50:56;;;;;;;35.70;24.75;;;22.40;1.00;;;;;;5137440;27;20050;-26
2023/06/29 08:53:22;;;;;;;35.13;24.85;;;22.20;1.00;;;;;;5137476;27;20491;-27
2023/06/29 08:55:48;;;;;;;34.17;25.75;;;22.20;22.40;;;;;;5137932;27;20047;-28
2023/06/29 08:58:14;;;;;;;32.38;24.48;;;22.10;1.00;;;;;;5138038;27;20055;-26
2023/06/29 09:00:42;;;;;;;35.92;24.27;;;22.10;78.00;;;;;;5137260;27;20077;-27
2023/06/29 09:03:08;;;;;;;36.38;25.20;;;22.00;99.90;;;;;;5137285;27;20043;-27
2023/06/29 09:05:36;;;;;;;36.85;25.95;;;22.10;99.90;;;;;;5137199;27;20043;-27
2023/06/29 09:08:02;;;;;;;34.55;24.33;;;22.00;95.40;;;;;;5137173;27;20125;-27
2023/06/29 09:10:28;;;;;;;36.28;25.92;;;22.00;99.90;;;;;;5137094;27;20484;-26
2023/06/29 09:12:54;;;;;;;38.92;26.50;;;22.00;99.90;;;;;;5137004;27;20091;-26
2023/06/29 09:15:25;;;;;;;35.35;26.05;;;22.00;99.90;;;;;;5137038;27;20047;-27
2023/06/29 09:17:57;;;;;;;36.50;27.02;;;22.10;99.90;;;;;;5137087;27;20047;-27
2023/06/29 09:20:25;;;;;;;40.08;27.63;;;22.20;99.90;;;;;;5119266;27;20066;-27
2023/06/29 09:22:51;;;;;;;34.35;27.48;;;22.30;99.90;;;;;;5084818;27;20071;-26
2023/06/29 09:25:18;;;;;;;38.28;25.60;;;22.30;99.90;;;;;;5136884;27;20132;-26
2023/06/29 09:27:44;;;;;;;38.55;26.33;;;22.30;1.00;;;;;;5118735;27;20050;-27
2023/06/29 09:30:20;;;;;;;33.90;25.58;;;22.20;1.00;;;;;;5118252;27;20426;-26
2023/06/29 09:32:46;;;;;;;34.28;26.33;;;22.10;1.00;;;;;;5136694;27;20468;-27
2023/06/29 09:35:12;;;;;;;35.13;27.63;;;21.90;1.00;;;;;;5136652;27;20046;-27
2023/06/29 09:37:40;;;;;;;32.40;25.60;;;21.80;1.00;;;;;;5118402;27;20035;-26
2023/06/29 09:40:11;;;;;;;35.60;25.98;;;21.70;1.00;;;;;;5118453;27;20051;-26
2023/06/29 09:42:38;;;;;;;37.92;25.85;;;21.50;1.00;;;;;;5136880;27;20429;-27
2023/06/29 09:45:11;;;;;;;33.15;25.88;;;21.50;1.00;;;;;;5118044;27;20047;-27
2023/06/29 09:47:42;;;;;;;;;;;21.50;1.00;;;;;;5137543;27;20057;-26
2023/06/29 09:50:26;;;;;;;36.63;26.65;;;21.50;1.00;;;;;;5136023;27;20371;-27
2023/06/29 09:52:54;;;;;;;35.65;24.95;;;21.50;1.00;;;;;;5136597;27;20388;-27
2023/06/29 09:55:28;;;;;;;36.00;26.10;;;21.50;51.80;;;;;;5136314;27;20051;-27
2023/06/29 09:57:54;;;;;;;34.83;24.77;;;21.60;11.00;;;;;;5135070;27;20086;-26
2023/06/29 10:00:20;;;;;;;27.92;20.58;;;21.60;1.00;;;;;;5117763;27;20046;-26
2023/06/29 10:02:46;;;;;;;31.00;24.58;;;21.60;1.00;;;;;;5118290;27;20039;-26
2023/06/29 10:05:12;;;;;;;29.42;24.05;;;21.70;1.00;;;;;;5136132;27;20035;-26
2023/06/29 10:07:39;;;;;;;30.60;24.80;;;21.60;1.00;;;;;;5136032;27;20127;-26
2023/06/29 10:10:08;;;;;;;30.02;24.20;;;21.60;1.00;;;;;;5118558;27;20104;-27
2023/06/29 10:12:34;;;;;;;36.55;25.00;;;21.40;1.00;;;;;;5135841;27;20050;-26
2023/06/29 10:15:09;;;;;;;31.80;25.15;;;21.30;1.00;;;;;;5135876;27;20388;-28
2023/06/29 10:17:54;;;;;;;33.92;24.38;;;21.20;1.00;;;;;;5136742;27;20122;-26
2023/06/29 10:20:23;;;;;;;31.95;26.40;;;21.00;1.00;;;;;;5136337;27;20043;-27
2023/06/29 10:22:50;;;;;;;32.97;26.42;;;20.90;89.90;;;;;;5136296;27;20039;-27
2023/06/29 10:25:21;;;;;;;31.42;25.05;;;20.80;99.90;;;;;;5135676;27;20043;-27
2023/06/29 10:27:48;;;;;;;39.63;27.75;;;20.70;99.90;;;;;;5136262;27;20108;-26
2023/06/29 10:30:20;;;;;;;38.00;28.73;;;20.50;99.90;;;;;;5117623;27;20050;-27
2023/06/29 10:32:49;;;;;;;37.50;29.58;;;20.30;99.90;;;;;;5100551;27;20043;-26
2023/06/29 10:35:15;;;;;;;45.25;30.70;;;20.10;99.90;;;;;;5136042;27;20053;-27
2023/06/29 10:37:43;;;;;;;38.60;27.98;;;20.00;99.90;;;;;;5135438;27;20121;-26
2023/06/29 10:40:14;;;;;;;40.50;29.73;;;20.00;99.90;;;;;;5117789;27;20050;-27
2023/06/29 10:42:39;;;;;;;42.50;30.08;;;20.10;99.90;;;;;;5135364;27;20035;-26
2023/06/29 10:45:17;;;;;;;44.13;29.45;;;20.20;99.90;;;;;;5117357;27;20047;-26
2023/06/29 10:47:45;;;;;;;41.50;31.02;;;20.40;99.90;;;;;;5135866;27;20422;-26
2023/06/29 10:50:10;;;;;;;38.60;29.23;;;20.70;99.90;;;;;;5136013;27;20411;-26
2023/06/29 10:52:40;;;;;;;39.78;29.98;;;20.90;99.90;;;;;;5135063;27;20053;-26
2023/06/29 10:55:20;;;;;;;38.25;26.00;;;21.20;99.90;;;;;;5117039;27;20051;-26
2023/06/29 10:57:58;;;;;;;35.17;26.98;;;21.40;99.90;;;;;;5134881;27;20055;-26
2023/06/29 11:00:25;;;;;;;34.33;25.40;;;21.70;99.90;;;;;;5135971;27;20051;-26
2023/06/29 11:02:52;;;;;;;36.08;27.42;;;22.00;99.90;;;;;;5099898;27;20051;-27
2023/06/29 11:05:20;;;;;;;34.10;27.08;;;22.30;99.90;;;;;;5117741;27;20070;-26
2023/06/29 11:07:49;;;;;;;33.22;26.60;;;22.40;99.90;;;;;;5116531;27;20043;-27
2023/06/29 11:10:15;;;;;;;31.33;25.00;;;22.40;1.00;;;;;;5134759;27;20043;-26
2023/06/29 11:12:41;;;;;;;33.45;25.90;;;22.40;1.00;;;;;;5116531;27;20043;-27
2023/06/29 11:15:15;;;;;;;34.10;27.50;;;22.30;1.00;;;;;;5134829;27;20054;-27
2023/06/29 11:17:42;;;;;;;37.13;28.23;;;22.20;1.00;;;;;;5082699;27;20061;-26
2023/06/29 11:20:15;;;;;;;34.80;26.08;;;22.00;1.00;;;;;;5134764;27;20468;-27
2023/06/29 11:22:43;;;;;;;;;;;21.80;66.30;;;;;;5135198;27;20047;-28
2023/06/29 11:25:12;;;;;;;36.67;27.15;;;21.60;99.90;;;;;;5134728;27;20440;-26
2023/06/29 11:27:38;;;;;;;41.35;27.70;;;21.50;99.90;;;;;;5134714;27;20067;-26
2023/06/29 11:30:07;;;;;;;34.88;27.83;;;21.50;99.90;;;;;;5134611;27;20039;-26
2023/06/29 11:32:33;;;;;;;37.80;29.77;;;21.60;99.90;;;;;;5134656;28;20156;-26
2023/06/29 11:35:00;;;;;;;36.85;28.50;;;21.80;99.90;;;;;;5134713;28;20051;-26
2023/06/29 11:37:29;;;;;;;36.15;27.45;;;22.10;99.90;;;;;;5134606;28;20047;-26
2023/06/29 11:39:55;;;;;;;35.45;28.75;;;22.40;99.90;;;;;;5134597;28;20058;-27
2023/06/29 11:42:22;;;;;;;40.40;30.33;;;22.50;5.50;;;;;;5135153;28;20134;-26
2023/06/29 11:45:04;;;;;;;40.78;30.38;;;22.60;1.00;;;;;;5134557;28;20097;-26
2023/06/29 11:47:31;;;;;;;33.67;25.33;;;23.10;1.00;;;;;;5134857;28;20043;-26
2023/06/29 11:50:00;;;;;;;40.00;30.77;;;23.30;99.90;;;;;;5117233;28;20047;-27
2023/06/29 11:52:32;;;;;;;39.35;31.10;;;23.40;99.90;;;;;;5134714;28;20042;-26
2023/06/29 11:55:02;;;;;;;36.50;29.83;;;23.20;1.00;;;;;;5134731;28;20035;-27
2023/06/29 11:57:32;;;;;;;40.10;31.80;;;23.30;99.90;;;;;;5135264;28;20097;-26
2023/06/29 11:59:58;;;;;;;39.70;32.78;;;23.50;99.90;;;;;;5112715;28;20059;-27
2023/06/29 12:02:23;;;;;;;43.58;31.75;;;23.80;99.90;;;;;;5112844;28;20058;-26
2023/06/29 12:05:03;;;;;;;44.78;32.53;;;23.70;1.00;;;;;;5096706;28;20465;-27
2023/06/29 12:07:41;;;;;;;37.72;31.10;;;23.70;1.00;;;;;;5113539;28;20047;-26
2023/06/29 12:10:12;;;;;;;45.03;32.35;;;23.60;99.90;;;;;;5112618;28;20112;-26
2023/06/29 12:12:46;;;;;;;36.72;29.52;;;23.90;1.00;;;;;;5113662;28;20105;-27
2023/06/29 12:15:17;;;;;;;38.70;30.27;;;24.10;1.00;;;;;;5112256;28;20075;-27
2023/06/29 12:17:43;;;;;;;38.67;29.35;;;24.70;99.90;;;;;;5114358;28;20112;-26
2023/06/29 12:20:22;;;;;;;37.35;29.45;;;24.70;99.90;;;;;;5113705;28;20051;-27
2023/06/29 12:22:55;;;;;;;42.42;29.77;;;24.90;99.90;;;;;;5117750;28;20043;-26
2023/06/29 12:25:22;;;;;;;38.92;29.88;;;24.90;1.00;;;;;;5116319;28;20448;-27
2023/06/29 12:27:49;;;;;;;48.90;29.88;;;25.30;1.00;;;;;;5116319;27;20131;-27